Time;durP1;ratioP1;P1;durP2;ratioP2;P2;SDS_P1;SDS_P2;PMS_P1;PMS_P2;Temp;Humidity;BMP_temperature;BMP_pressure;BME280_temperature;BME280_humidity;BME280_pressure;Samples;Min_cycle;Max_cycle;Signal;HPM_P1;HPM_P2
2022/06/07 00:02:24;;;;;;;1.30;1.20;;;13.10;99.90;;;;;;5090854;28;20108;-50
2022/06/07 00:04:51;;;;;;;0.82;0.82;;;13.10;99.90;;;;;;5094773;28;20070;-48
2022/06/07 00:07:16;;;;;;;1.35;1.25;;;13.10;99.90;;;;;;5101221;28;20062;-46
2022/06/07 00:09:42;;;;;;;1.27;1.17;;;13.10;99.90;;;;;;5099259;28;20526;-47
2022/06/07 00:12:08;;;;;;;1.95;1.00;;;13.00;99.90;;;;;;5100220;28;20396;-51
2022/06/07 00:14:34;;;;;;;1.00;0.98;;;13.00;99.90;;;;;;5099145;28;20028;-49
2022/06/07 00:17:00;;;;;;;1.48;1.38;;;12.90;99.90;;;;;;5099113;28;20043;-53
2022/06/07 00:19:26;;;;;;;0.90;0.88;;;12.90;99.90;;;;;;5102957;28;20107;-53
2022/06/07 00:21:52;;;;;;;0.93;0.93;;;12.90;99.90;;;;;;5097267;28;20120;-52
2022/06/07 00:24:17;;;;;;;0.90;0.90;;;12.90;99.90;;;;;;5099577;28;20020;-48
2022/06/07 00:26:43;;;;;;;1.40;0.90;;;12.90;99.90;;;;;;5100474;28;20027;-52
2022/06/07 00:29:09;;;;;;;1.75;1.08;;;12.90;99.90;;;;;;5100079;28;20488;-50
2022/06/07 00:31:36;;;;;;;1.20;1.10;;;12.90;99.90;;;;;;5100666;28;20092;-52
2022/06/07 00:34:05;;;;;;;0.90;0.90;;;12.90;99.90;;;;;;5100279;28;20035;-50
2022/06/07 00:36:31;;;;;;;3.33;1.10;;;12.90;99.90;;;;;;5100797;28;20008;-47
2022/06/07 00:38:57;;;;;;;1.20;1.10;;;13.00;99.90;;;;;;5080808;28;20530;-51
2022/06/07 00:41:23;;;;;;;1.60;1.50;;;12.90;99.90;;;;;;5084187;28;20032;-47
2022/06/07 00:44:19;;;;;;;1.50;1.40;;;13.00;99.90;;;;;;5103676;28;20027;-47
2022/06/07 00:46:45;;;;;;;1.50;1.27;;;12.90;99.90;;;;;;5101373;28;20081;-51
2022/06/07 00:49:12;;;;;;;1.70;1.60;;;12.90;99.90;;;;;;5104070;28;20024;-47
2022/06/07 00:51:39;;;;;;;3.03;1.77;;;12.90;99.90;;;;;;5104350;28;20449;-47
2022/06/07 00:54:05;;;;;;;1.60;1.50;;;12.90;99.90;;;;;;5102090;28;20108;-48
2022/06/07 00:56:30;;;;;;;1.83;1.73;;;12.90;99.90;;;;;;5104902;28;20423;-46
2022/06/07 00:58:57;;;;;;;2.08;1.98;;;12.80;99.90;;;;;;5101951;28;20024;-48
2022/06/07 01:01:23;;;;;;;2.05;1.85;;;12.80;99.90;;;;;;5102007;28;20084;-50
2022/06/07 01:03:48;;;;;;;1.77;1.67;;;12.80;99.90;;;;;;5102434;28;20027;-50
2022/06/07 01:11:42;;;;;;;2.05;1.80;;;12.80;99.90;;;;;;5096554;28;20081;-46
2022/06/07 01:14:07;;;;;;;2.30;2.08;;;12.70;99.90;;;;;;5107060;28;20027;-48
2022/06/07 01:16:33;;;;;;;1.75;1.65;;;12.70;99.90;;;;;;5100843;28;20056;-48
2022/06/07 01:18:59;;;;;;;1.88;1.60;;;12.70;99.90;;;;;;5108394;28;20020;-47
2022/06/07 01:21:32;;;;;;;2.00;1.90;;;12.70;99.90;;;;;;5100033;28;20193;-49
2022/06/07 01:23:58;;;;;;;3.40;2.30;;;12.70;99.90;;;;;;5100612;28;20055;-49
2022/06/07 01:26:24;;;;;;;2.40;2.20;;;12.70;99.90;;;;;;5104144;28;20489;-47
2022/06/07 01:28:50;;;;;;;2.60;2.22;;;12.70;99.90;;;;;;5102651;28;20020;-47
2022/06/07 01:31:16;;;;;;;4.53;2.28;;;12.60;99.90;;;;;;5103809;28;20026;-46
2022/06/07 01:33:41;;;;;;;2.47;1.88;;;12.60;99.90;;;;;;5104528;28;20024;-47
2022/06/07 01:36:11;;;;;;;2.45;1.83;;;12.60;99.90;;;;;;5101981;28;20030;-47
2022/06/07 01:38:39;;;;;;;2.28;1.90;;;12.60;99.90;;;;;;5103390;28;20019;-47
2022/06/07 01:43:51;;;;;;;2.28;1.80;;;12.60;99.90;;;;;;5102435;28;20107;-47
2022/06/07 01:46:17;;;;;;;2.13;1.90;;;12.60;99.90;;;;;;5103805;28;20031;-48
2022/06/07 01:48:42;;;;;;;3.97;2.85;;;12.60;99.90;;;;;;5103861;28;20015;-46
2022/06/07 01:51:09;;;;;;;2.10;1.90;;;12.50;99.90;;;;;;5103326;28;20133;-47
2022/06/07 01:53:36;;;;;;;2.10;2.00;;;12.50;99.90;;;;;;5102924;28;20036;-46
2022/06/07 01:56:12;;;;;;;2.40;1.70;;;12.50;99.90;;;;;;5101333;28;20091;-46
2022/06/07 01:58:39;;;;;;;1.85;1.75;;;12.50;99.90;;;;;;5103485;28;20020;-46
2022/06/07 02:01:05;;;;;;;2.33;2.13;;;12.50;99.90;;;;;;5101943;28;20016;-47
2022/06/07 02:03:31;;;;;;;1.70;1.60;;;12.50;99.90;;;;;;5103157;28;20529;-46
2022/06/07 02:06:03;;;;;;;2.83;1.55;;;12.50;99.90;;;;;;5102921;28;20099;-47
2022/06/07 02:08:29;;;;;;;2.40;2.20;;;12.50;99.90;;;;;;5103476;28;20023;-47
2022/06/07 02:10:55;;;;;;;2.15;1.90;;;12.50;99.90;;;;;;5102311;28;20032;-46
2022/06/07 02:13:22;;;;;;;3.13;2.22;;;12.50;99.90;;;;;;5101723;28;20026;-46
2022/06/07 02:15:48;;;;;;;3.22;2.05;;;12.50;99.90;;;;;;5103261;28;20019;-48
2022/06/07 02:18:14;;;;;;;2.60;2.38;;;12.50;99.90;;;;;;5101904;28;20034;-46
2022/06/07 02:20:40;;;;;;;2.00;1.90;;;12.50;99.90;;;;;;5102926;28;20016;-45
2022/06/07 02:23:08;;;;;;;2.25;2.05;;;12.50;99.90;;;;;;5084159;28;20020;-46
2022/06/07 02:25:42;;;;;;;3.28;1.80;;;12.50;99.90;;;;;;5095861;28;20114;-46
2022/06/07 02:28:10;;;;;;;1.75;1.65;;;12.50;99.90;;;;;;5088346;28;20442;-48
2022/06/07 02:30:36;;;;;;;1.90;1.80;;;12.50;99.90;;;;;;5099397;28;20016;-46
2022/06/07 02:33:02;;;;;;;2.53;1.90;;;12.50;99.90;;;;;;5107043;28;20030;-46
2022/06/07 02:35:28;;;;;;;2.28;2.05;;;12.50;99.90;;;;;;5098891;28;20028;-46
2022/06/07 02:37:53;;;;;;;2.13;1.92;;;12.50;99.90;;;;;;5098748;28;20665;-49
2022/06/07 02:40:19;;;;;;;2.53;1.40;;;12.50;99.90;;;;;;5104481;28;20032;-50
2022/06/07 02:42:45;;;;;;;1.50;1.40;;;12.50;99.90;;;;;;5098972;28;20024;-50
2022/06/07 02:45:11;;;;;;;2.15;1.95;;;12.50;99.90;;;;;;5091421;28;20442;-47
2022/06/07 02:47:37;;;;;;;5.40;1.83;;;12.60;99.90;;;;;;5105573;28;20030;-45
2022/06/07 02:50:03;;;;;;;2.42;1.77;;;12.50;99.90;;;;;;5087572;28;20029;-51
2022/06/07 02:52:29;;;;;;;1.45;1.27;;;12.60;99.90;;;;;;5103197;28;20145;-52
2022/06/07 02:54:55;;;;;;;1.77;1.60;;;12.60;99.90;;;;;;5096717;28;20032;-48
2022/06/07 02:57:21;;;;;;;1.60;1.50;;;12.60;99.90;;;;;;5101699;28;20085;-51
2022/06/07 02:59:47;;;;;;;1.58;1.33;;;12.60;99.90;;;;;;5102333;28;20094;-48
2022/06/07 03:02:14;;;;;;;1.75;1.65;;;12.60;99.90;;;;;;5100080;28;20020;-45
2022/06/07 03:04:39;;;;;;;2.97;1.75;;;12.60;99.90;;;;;;5102122;28;20169;-47
2022/06/07 03:07:05;;;;;;;1.75;1.65;;;12.60;99.90;;;;;;5081593;28;20027;-49
2022/06/07 03:09:31;;;;;;;1.40;1.30;;;12.60;99.90;;;;;;5102354;28;20016;-49
2022/06/07 03:11:57;;;;;;;2.28;1.60;;;12.60;99.90;;;;;;5100687;28;20028;-47
2022/06/07 03:14:22;;;;;;;1.48;1.38;;;12.60;99.90;;;;;;5101630;28;20096;-45
2022/06/07 03:16:48;;;;;;;2.78;1.63;;;12.70;99.90;;;;;;5102160;28;20027;-45
2022/06/07 03:19:14;;;;;;;2.03;1.60;;;12.70;99.90;;;;;;5100938;28;20085;-47
2022/06/07 03:21:39;;;;;;;1.77;1.65;;;12.70;99.90;;;;;;5101371;28;20024;-45
2022/06/07 03:24:06;;;;;;;2.55;1.60;;;12.70;99.90;;;;;;5099367;28;20115;-49
2022/06/07 03:26:32;;;;;;;1.63;1.52;;;12.80;99.90;;;;;;5102548;28;20084;-47
2022/06/07 03:28:57;;;;;;;1.63;1.52;;;12.80;99.90;;;;;;5082296;28;20031;-48
2022/06/07 03:31:23;;;;;;;1.40;1.30;;;12.80;99.90;;;;;;5101642;28;20050;-45
2022/06/07 03:33:49;;;;;;;1.55;1.40;;;12.80;99.90;;;;;;5101642;28;20473;-46
2022/06/07 03:36:22;;;;;;;1.33;1.23;;;12.70;99.90;;;;;;5101598;28;20016;-46
2022/06/07 03:38:49;;;;;;;1.20;1.10;;;12.70;99.90;;;;;;5101905;28;20016;-46
2022/06/07 03:41:21;;;;;;;1.80;1.63;;;12.70;99.90;;;;;;5475090;22;20455;-50
2022/06/07 03:43:47;;;;;;;2.45;1.02;;;12.70;99.90;;;;;;5109802;28;20072;-48
2022/06/07 03:46:16;;;;;;;1.27;1.17;;;12.80;99.90;;;;;;5086119;28;20028;-49
2022/06/07 03:48:43;;;;;;;1.25;1.15;;;12.70;99.90;;;;;;5091678;28;20047;-49
2022/06/07 03:51:10;;;;;;;2.22;1.40;;;12.80;99.90;;;;;;5066870;28;20477;-51
2022/06/07 03:53:36;;;;;;;1.00;0.90;;;12.80;99.90;;;;;;5109398;28;20503;-48
2022/06/07 03:56:03;;;;;;;1.15;1.05;;;12.80;99.90;;;;;;5107780;28;20093;-51
2022/06/07 03:58:28;;;;;;;1.40;1.30;;;12.80;99.90;;;;;;5105379;28;20080;-49
2022/06/07 04:00:59;;;;;;;1.02;1.00;;;12.80;99.90;;;;;;5090610;28;20035;-49
2022/06/07 04:03:25;;;;;;;1.20;1.10;;;12.90;99.90;;;;;;5102778;28;20386;-48
2022/06/07 04:05:51;;;;;;;1.02;0.90;;;12.90;99.90;;;;;;5091111;28;20190;-50
2022/06/07 04:08:17;;;;;;;1.17;1.08;;;12.80;99.90;;;;;;5105831;28;20096;-50
2022/06/07 04:10:56;;;;;;;1.52;1.05;;;12.80;99.90;;;;;;5074428;28;20560;-49
2022/06/07 04:13:25;;;;;;;1.38;1.27;;;12.80;99.90;;;;;;5099252;28;20115;-48
2022/06/07 04:15:51;;;;;;;2.10;1.77;;;12.90;99.90;;;;;;5089618;28;20024;-50
2022/06/07 04:18:19;;;;;;;1.60;1.50;;;12.90;99.90;;;;;;5110087;28;20023;-47
2022/06/07 04:20:45;;;;;;;1.70;1.60;;;12.90;99.90;;;;;;5091703;28;20015;-48
2022/06/07 04:23:19;;;;;;;1.20;1.15;;;12.90;99.90;;;;;;5095139;28;20019;-48
2022/06/07 04:25:44;;;;;;;1.50;1.30;;;12.90;99.90;;;;;;5110355;28;20023;-50
2022/06/07 04:28:11;;;;;;;1.52;1.40;;;12.90;99.90;;;;;;5112302;28;20473;-48
2022/06/07 04:30:37;;;;;;;1.65;1.50;;;12.90;99.90;;;;;;5090586;28;20035;-48
2022/06/07 04:33:03;;;;;;;1.50;1.40;;;12.90;99.90;;;;;;5092739;28;20174;-50
2022/06/07 04:35:29;;;;;;;1.42;1.33;;;13.00;99.90;;;;;;5107566;28;20111;-49
2022/06/07 04:37:55;;;;;;;1.27;1.17;;;13.00;99.90;;;;;;5109865;28;20019;-48
2022/06/07 04:40:21;;;;;;;1.88;1.42;;;13.00;99.90;;;;;;5094574;28;20491;-48
2022/06/07 04:42:47;;;;;;;1.70;1.60;;;13.00;99.90;;;;;;5108979;28;20020;-48
2022/06/07 04:45:15;;;;;;;1.77;1.55;;;13.00;99.90;;;;;;5112376;28;20024;-49
2022/06/07 04:47:45;;;;;;;1.67;1.58;;;13.00;99.90;;;;;;5108600;28;20024;-50
2022/06/07 04:50:13;;;;;;;2.28;1.92;;;13.00;99.90;;;;;;5110996;28;20023;-49
2022/06/07 04:52:39;;;;;;;1.83;1.60;;;13.00;99.90;;;;;;5107174;28;20024;-49
2022/06/07 04:55:04;;;;;;;2.00;1.77;;;13.00;99.90;;;;;;5112794;28;20501;-48
2022/06/07 04:57:30;;;;;;;2.53;2.33;;;13.00;99.90;;;;;;5109053;28;20028;-50
2022/06/07 04:59:56;;;;;;;2.70;2.50;;;13.10;99.90;;;;;;5092687;28;20024;-49
2022/06/07 05:02:22;;;;;;;2.40;2.20;;;13.00;99.90;;;;;;5089327;28;20022;-49
2022/06/07 05:04:48;;;;;;;2.58;2.20;;;13.10;99.90;;;;;;5110212;28;20099;-48
2022/06/07 05:07:14;;;;;;;2.17;1.98;;;13.10;99.90;;;;;;5112782;28;20012;-52
2022/06/07 05:09:40;;;;;;;3.53;2.45;;;13.10;99.90;;;;;;5090972;28;20052;-48
2022/06/07 05:12:08;;;;;;;3.40;2.50;;;13.10;99.90;;;;;;5092746;28;20051;-49
2022/06/07 05:14:37;;;;;;;2.00;1.67;;;13.10;99.90;;;;;;5090024;28;20012;-48
2022/06/07 05:17:03;;;;;;;3.25;2.25;;;13.10;99.90;;;;;;5092308;28;20020;-47
2022/06/07 05:19:33;;;;;;;3.88;2.30;;;13.10;99.90;;;;;;5089093;28;20020;-49
2022/06/07 05:22:00;;;;;;;2.30;2.08;;;13.10;99.90;;;;;;5090512;28;20670;-48
2022/06/07 05:24:25;;;;;;;2.35;2.15;;;13.10;99.90;;;;;;5093857;28;20100;-48
2022/06/07 05:26:56;;;;;;;3.42;2.50;;;13.10;99.90;;;;;;5107838;28;20043;-48
2022/06/07 05:29:28;;;;;;;2.72;2.50;;;13.10;99.90;;;;;;5086156;28;20489;-47
2022/06/07 05:31:54;;;;;;;3.08;2.35;;;13.20;99.90;;;;;;5106761;28;20077;-50
2022/06/07 05:34:20;;;;;;;5.15;3.42;;;13.20;99.90;;;;;;5111249;28;20028;-47
2022/06/07 05:36:46;;;;;;;3.08;2.78;;;13.20;99.90;;;;;;5106914;28;20442;-51
2022/06/07 05:39:27;;;;;;;3.38;2.63;;;13.20;99.90;;;;;;5090900;28;20055;-48
2022/06/07 05:41:53;;;;;;;3.38;2.80;;;13.20;99.90;;;;;;5111058;28;20027;-48
2022/06/07 05:44:19;;;;;;;3.35;2.92;;;13.20;99.90;;;;;;5107860;28;20451;-48
2022/06/07 05:46:46;;;;;;;3.22;2.92;;;13.30;99.90;;;;;;5112342;28;20081;-50
2022/06/07 05:49:12;;;;;;;4.63;3.35;;;13.30;99.90;;;;;;5105528;28;20066;-51
2022/06/07 05:51:38;;;;;;;3.90;3.30;;;13.30;99.90;;;;;;5111786;28;20538;-52
2022/06/07 05:54:06;;;;;;;3.25;2.75;;;13.30;99.90;;;;;;5106409;28;20019;-50
2022/06/07 05:56:32;;;;;;;4.93;2.90;;;13.30;99.90;;;;;;5107630;28;20058;-49
2022/06/07 05:58:58;;;;;;;3.55;3.17;;;13.40;99.90;;;;;;5110140;28;20015;-51
2022/06/07 06:01:26;;;;;;;3.92;3.53;;;13.40;99.90;;;;;;5106778;28;20397;-49
2022/06/07 06:03:52;;;;;;;4.45;4.05;;;13.40;99.90;;;;;;5087703;28;20107;-48
2022/06/07 06:06:17;;;;;;;3.45;3.15;;;13.40;99.90;;;;;;5111764;28;20020;-51
2022/06/07 06:11:28;;;;;;;4.45;3.55;;;13.50;99.90;;;;;;5105396;28;20030;-49
2022/06/07 06:13:55;;;;;;;5.53;4.32;;;13.60;99.90;;;;;;5088968;28;20019;-50
2022/06/07 06:16:22;;;;;;;5.57;3.75;;;13.60;99.90;;;;;;5109993;28;20019;-49
2022/06/07 06:18:58;;;;;;;4.53;3.92;;;13.60;99.90;;;;;;5106115;28;20553;-48
2022/06/07 06:21:28;;;;;;;4.85;4.38;;;13.60;99.90;;;;;;5103311;28;20030;-49
2022/06/07 06:23:57;;;;;;;5.65;5.13;;;13.70;99.90;;;;;;5111041;28;20477;-49
2022/06/07 06:26:22;;;;;;;7.65;4.63;;;13.70;99.90;;;;;;5107782;28;20159;-48
2022/06/07 06:28:49;;;;;;;5.60;4.97;;;13.80;99.90;;;;;;5092018;28;20460;-48
2022/06/07 06:31:15;;;;;;;7.30;5.70;;;13.80;99.90;;;;;;5084344;28;20443;-52
2022/06/07 06:33:44;;;;;;;9.23;7.05;;;13.90;99.90;;;;;;5109188;28;20310;-49
2022/06/07 06:36:12;;;;;;;8.73;7.18;;;14.00;99.90;;;;;;5105503;28;20023;-51
2022/06/07 06:38:38;;;;;;;8.48;6.50;;;14.10;99.90;;;;;;5108096;28;20028;-50
2022/06/07 06:41:24;;;;;;;10.82;7.72;;;14.10;99.90;;;;;;5110274;28;20034;-49
2022/06/07 06:43:51;;;;;;;10.18;7.70;;;14.20;99.90;;;;;;5088632;28;20031;-50
2022/06/07 06:46:21;;;;;;;7.90;7.10;;;14.20;99.90;;;;;;5110262;28;20055;-49
2022/06/07 06:48:47;;;;;;;10.38;7.95;;;14.20;99.90;;;;;;5088645;28;20019;-48
2022/06/07 06:51:16;;;;;;;8.60;7.75;;;14.30;99.90;;;;;;5108695;28;20481;-50
2022/06/07 06:53:42;;;;;;;9.40;8.27;;;14.30;99.90;;;;;;5105640;28;20035;-51
2022/06/07 06:56:09;;;;;;;10.00;8.27;;;14.30;99.90;;;;;;5089698;28;20057;-48
2022/06/07 06:58:34;;;;;;;10.77;9.05;;;14.30;99.90;;;;;;5107430;28;20098;-48
2022/06/07 07:01:06;;;;;;;9.77;8.75;;;14.40;99.90;;;;;;5108992;28;20781;-50
2022/06/07 07:03:33;;;;;;;10.65;8.77;;;14.40;99.90;;;;;;5072802;28;20015;-48
2022/06/07 07:06:00;;;;;;;10.98;8.13;;;14.50;99.90;;;;;;5110511;28;20422;-48
2022/06/07 07:08:27;;;;;;;10.25;8.77;;;14.50;99.90;;;;;;5107006;28;20412;-52
2022/06/07 07:11:18;;;;;;;9.48;8.07;;;14.50;99.90;;;;;;5091016;28;20468;-47
2022/06/07 07:13:46;;;;;;;9.77;8.27;;;14.50;99.90;;;;;;5105817;28;20462;-49
2022/06/07 07:16:16;;;;;;;9.07;7.95;;;14.50;99.90;;;;;;5108454;28;20419;-49
2022/06/07 07:18:42;;;;;;;9.43;7.93;;;14.60;99.90;;;;;;5105088;28;20040;-50
2022/06/07 07:21:14;;;;;;;9.80;7.95;;;14.70;99.90;;;;;;5088139;28;20019;-49
2022/06/07 07:23:40;;;;;;;8.30;7.50;;;14.80;99.90;;;;;;5108869;28;20027;-48
2022/06/07 07:26:08;;;;;;;7.65;6.85;;;14.80;99.90;;;;;;5105421;28;20032;-48
2022/06/07 07:28:36;;;;;;;8.70;6.82;;;14.90;99.90;;;;;;5109362;28;20020;-49
2022/06/07 07:31:04;;;;;;;8.35;6.63;;;15.00;99.90;;;;;;5087515;28;20030;-48
2022/06/07 07:33:31;;;;;;;7.78;6.55;;;15.00;99.90;;;;;;5107900;28;20026;-48
2022/06/07 07:35:59;;;;;;;11.25;7.47;;;15.00;99.90;;;;;;5104194;28;20047;-49
2022/06/07 07:38:25;;;;;;;7.35;6.00;;;15.10;99.90;;;;;;5107376;28;20020;-47
2022/06/07 07:40:51;;;;;;;10.77;6.35;;;15.10;99.90;;;;;;5091323;28;20031;-51
2022/06/07 07:43:17;;;;;;;8.48;6.57;;;15.20;99.90;;;;;;5106062;28;20107;-48
2022/06/07 07:45:44;;;;;;;8.00;6.35;;;15.20;99.90;;;;;;5108920;28;20409;-49
2022/06/07 07:48:10;;;;;;;12.07;6.25;;;15.30;99.90;;;;;;5105312;28;20048;-48
2022/06/07 07:50:37;;;;;;;10.02;6.18;;;15.30;99.90;;;;;;5107294;28;20035;-52
2022/06/07 07:53:03;;;;;;;7.32;6.45;;;15.40;99.90;;;;;;5103906;28;20027;-49
2022/06/07 07:55:29;;;;;;;7.80;6.32;;;15.40;99.90;;;;;;5110043;28;20026;-48
2022/06/07 07:57:57;;;;;;;7.50;5.97;;;15.40;99.90;;;;;;5104641;28;20016;-50
2022/06/07 08:00:24;;;;;;;10.57;6.78;;;15.40;99.90;;;;;;5109289;28;20012;-48
2022/06/07 08:02:49;;;;;;;7.28;5.80;;;15.30;99.90;;;;;;5104047;28;20019;-51
2022/06/07 08:05:15;;;;;;;7.22;6.05;;;15.30;99.90;;;;;;5107335;28;20099;-48
2022/06/07 08:07:40;;;;;;;8.50;6.13;;;15.30;99.90;;;;;;5110125;28;20032;-49
2022/06/07 08:10:07;;;;;;;8.63;6.07;;;15.30;99.90;;;;;;5105254;28;20156;-48
2022/06/07 08:12:32;;;;;;;6.22;5.60;;;15.40;99.90;;;;;;5091244;28;20023;-53
2022/06/07 08:14:58;;;;;;;7.22;6.53;;;15.40;99.90;;;;;;5103932;28;20390;-53
2022/06/07 08:17:25;;;;;;;7.55;6.40;;;15.40;99.90;;;;;;5109007;28;20094;-52
2022/06/07 08:19:51;;;;;;;6.95;5.55;;;15.40;99.90;;;;;;5104136;28;20020;-47
2022/06/07 08:22:16;;;;;;;8.68;6.35;;;15.30;99.90;;;;;;5106798;28;20022;-50
2022/06/07 08:24:42;;;;;;;6.13;5.50;;;15.40;99.90;;;;;;5109756;28;20027;-50
2022/06/07 08:27:09;;;;;;;10.35;5.43;;;15.40;99.90;;;;;;5069735;28;20550;-49
2022/06/07 08:29:34;;;;;;;7.13;5.45;;;15.40;99.90;;;;;;5109632;28;20019;-48
2022/06/07 08:32:00;;;;;;;6.65;5.95;;;15.50;99.90;;;;;;5102809;28;20089;-49
2022/06/07 08:37:56;;;;;;;5.82;5.25;;;15.50;99.90;;;;;;5097925;28;20541;-48
2022/06/07 08:39:56;;;;;;;7.70;5.50;;;15.50;99.90;;;;;;5087358;28;20043;-51
2022/06/07 08:42:37;;;;;;;5.78;4.68;;;15.50;99.90;;;;;;5104858;28;20028;-50
2022/06/07 08:45:21;;;;;;;5.38;4.88;;;15.50;99.90;;;;;;5107586;28;20030;-50
2022/06/07 08:47:54;;;;;;;6.28;5.35;;;15.50;99.90;;;;;;5104181;28;20019;-48
2022/06/07 08:51:17;;;;;;;6.28;4.82;;;15.40;99.90;;;;;;5100861;28;20072;-49
2022/06/07 08:53:50;;;;;;;9.93;5.20;;;15.50;99.90;;;;;;5024263;28;20033;-49
2022/06/07 08:56:22;;;;;;;5.10;4.60;;;15.60;99.90;;;;;;5010996;28;20018;-47
2022/06/07 08:58:51;;;;;;;5.85;5.15;;;15.70;99.90;;;;;;5073171;28;20040;-52
2022/06/07 09:01:27;;;;;;;6.45;4.75;;;15.80;99.90;;;;;;5096925;28;20012;-48
2022/06/07 09:04:15;;;;;;;5.85;5.07;;;16.00;99.90;;;;;;5106248;28;20027;-51
2022/06/07 09:06:47;;;;;;;5.00;4.60;;;16.10;99.90;;;;;;5111532;28;20681;-52
2022/06/07 09:09:15;;;;;;;5.07;4.50;;;16.20;99.90;;;;;;5090146;28;20020;-47
2022/06/07 09:14:53;;;;;;;5.72;4.60;;;16.30;99.90;;;;;;5105569;28;20030;-48
2022/06/07 09:17:21;;;;;;;5.75;4.53;;;16.40;99.90;;;;;;5110621;28;20019;-49
2022/06/07 09:19:49;;;;;;;4.30;3.90;;;16.60;99.90;;;;;;5106827;28;20019;-50
2022/06/07 09:22:25;;;;;;;6.53;5.40;;;16.80;99.90;;;;;;5108245;28;20020;-51
2022/06/07 09:24:59;;;;;;;6.05;4.22;;;17.00;99.90;;;;;;5111266;28;20026;-50
2022/06/07 09:27:30;;;;;;;6.80;4.28;;;17.00;99.90;;;;;;5108514;28;20047;-50
2022/06/07 09:29:59;;;;;;;4.55;4.15;;;17.00;99.90;;;;;;5110139;28;20088;-50
2022/06/07 09:32:27;;;;;;;5.03;4.45;;;17.00;99.90;;;;;;5105935;28;20600;-48
2022/06/07 09:35:01;;;;;;;8.07;4.88;;;17.00;99.90;;;;;;5110499;28;20038;-49
2022/06/07 09:37:46;;;;;;;6.55;5.10;;;17.00;99.90;;;;;;5086515;28;20563;-50
2022/06/07 09:40:29;;;;;;;5.90;4.82;;;17.00;99.90;;;;;;5110838;28;20355;-49
2022/06/07 09:43:18;;;;;;;5.97;5.07;;;17.10;99.90;;;;;;5090519;22;1169134;-46
2022/06/07 09:45:44;;;;;;;4.60;4.20;;;17.20;99.90;;;;;;5111255;28;20393;-45
2022/06/07 09:48:31;;;;;;;4.82;3.75;;;17.20;99.90;;;;;;5107764;28;20016;-46
2022/06/07 09:51:13;;;;;;;6.40;4.85;;;17.20;99.90;;;;;;5110111;28;20482;-49
2022/06/07 09:53:45;;;;;;;4.97;4.43;;;17.20;99.90;;;;;;5091607;28;20107;-46
2022/06/07 09:56:29;;;;;;;7.28;5.05;;;17.20;99.90;;;;;;5107105;28;20043;-45
2022/06/07 09:59:28;;;;;;;5.47;4.05;;;17.20;99.90;;;;;;5098530;28;20153;-45
2022/06/07 10:02:31;;;;;;;5.50;4.35;;;17.20;99.90;;;;;;5102538;28;20036;-46
2022/06/07 10:05:23;;;;;;;7.72;4.75;;;17.20;99.90;;;;;;5102341;28;20019;-46
2022/06/07 10:08:05;;;;;;;6.15;5.35;;;17.30;99.90;;;;;;5105878;28;20390;-48
2022/06/07 10:10:58;;;;;;;6.13;4.85;;;17.30;99.90;;;;;;5099647;28;20024;-49
2022/06/07 10:13:42;;;;;;;7.07;5.13;;;17.30;99.90;;;;;;5092943;28;20024;-46
2022/06/07 10:16:25;;;;;;;6.25;4.95;;;17.10;99.90;;;;;;5102204;28;20039;-45
2022/06/07 10:19:09;;;;;;;6.13;5.18;;;17.00;99.90;;;;;;5102476;28;20122;-49
2022/06/07 10:21:53;;;;;;;5.35;4.35;;;16.80;99.90;;;;;;5102725;28;20516;-50
2022/06/07 10:24:30;;;;;;;4.63;4.18;;;16.80;99.90;;;;;;5094227;28;20567;-47
2022/06/07 10:27:22;;;;;;;5.05;4.53;;;16.80;99.90;;;;;;5102385;28;20034;-51
2022/06/07 10:30:15;;;;;;;5.32;4.80;;;16.80;99.90;;;;;;5102969;28;20020;-48
2022/06/07 10:33:16;;;;;;;4.88;4.03;;;16.80;99.90;;;;;;5080876;28;20016;-51
2022/06/07 10:36:13;;;;;;;5.03;4.63;;;16.80;99.90;;;;;;5095698;28;20020;-49
2022/06/07 10:38:42;;;;;;;5.05;4.55;;;16.80;99.90;;;;;;4974307;28;20117;-48
2022/06/07 10:41:07;;;;;;;4.45;4.05;;;16.80;99.90;;;;;;5099161;28;20390;-48
2022/06/07 10:43:56;;;;;;;7.07;5.05;;;16.80;99.90;;;;;;5102311;28;20020;-50
2022/06/07 10:46:21;;;;;;;5.13;4.70;;;16.70;99.90;;;;;;5102448;28;20486;-47
2022/06/07 10:49:08;;;;;;;6.57;5.13;;;16.60;99.90;;;;;;5103108;28;20073;-46
2022/06/07 10:54:47;;;;;;;5.30;4.88;;;16.60;99.90;;;;;;5085670;28;20449;-47
2022/06/07 10:57:18;;;;;;;7.35;5.95;;;16.50;99.90;;;;;;5102322;28;20019;-52
2022/06/07 10:59:44;;;;;;;8.27;7.40;;;16.30;99.90;;;;;;5102403;28;20413;-49
2022/06/07 11:02:26;;;;;;;7.82;6.75;;;16.10;99.90;;;;;;5100779;28;20016;-50
2022/06/07 11:10:45;;;;;;;8.65;7.95;;;15.80;99.90;;;;;;5095805;28;20043;-49
2022/06/07 11:13:22;;;;;;;10.65;7.80;;;15.80;99.90;;;;;;5105616;28;20028;-51
2022/06/07 11:15:54;;;;;;;9.68;8.73;;;15.80;99.90;;;;;;5094931;28;20020;-49
2022/06/07 11:18:25;;;;;;;8.32;7.60;;;15.90;99.90;;;;;;5091963;28;20023;-49
2022/06/07 11:21:02;;;;;;;9.15;8.25;;;16.00;99.90;;;;;;5098069;28;20021;-50
2022/06/07 11:23:43;;;;;;;9.63;7.88;;;16.10;99.90;;;;;;5101730;28;20539;-46
2022/06/07 11:26:15;;;;;;;9.32;6.90;;;16.10;99.90;;;;;;5100094;28;20020;-51
2022/06/07 11:28:40;;;;;;;8.25;7.45;;;16.10;99.90;;;;;;5101639;28;20057;-47
2022/06/07 11:31:41;;;;;;;8.77;7.88;;;16.00;99.90;;;;;;5100739;28;20051;-47
2022/06/07 11:34:12;;;;;;;8.98;7.85;;;15.90;99.90;;;;;;5101173;28;20024;-52
2022/06/07 11:36:42;;;;;;;9.70;8.70;;;15.90;99.90;;;;;;5102082;28;20023;-45
2022/06/07 11:39:23;;;;;;;10.70;8.27;;;15.90;99.90;;;;;;5099276;28;20084;-45
2022/06/07 11:42:21;;;;;;;12.65;8.93;;;15.80;99.90;;;;;;5104119;28;20020;-48
2022/06/07 11:45:04;;;;;;;8.65;7.75;;;15.80;99.90;;;;;;5094872;28;20099;-49
2022/06/07 11:48:09;;;;;;;10.00;7.95;;;15.80;99.90;;;;;;5093708;28;20052;-49
2022/06/07 11:50:52;;;;;;;9.55;8.18;;;15.70;99.90;;;;;;5088466;28;20104;-47
2022/06/07 11:53:32;;;;;;;9.50;8.60;;;15.50;99.90;;;;;;5095528;28;20024;-49
2022/06/07 11:56:07;;;;;;;10.02;9.13;;;15.30;99.90;;;;;;5103378;28;20020;-45
2022/06/07 11:58:54;;;;;;;9.15;7.95;;;15.20;99.90;;;;;;5098047;28;20108;-45
2022/06/07 12:01:42;;;;;;;9.93;8.60;;;15.20;99.90;;;;;;5091380;28;20024;-51
2022/06/07 12:04:40;;;;;;;9.98;8.02;;;15.30;99.90;;;;;;5100252;28;20393;-51
2022/06/07 12:07:21;;;;;;;9.38;8.43;;;15.60;99.90;;;;;;5098279;28;20517;-49
2022/06/07 12:09:59;;;;;;;9.38;8.32;;;15.80;99.90;;;;;;5101748;28;20385;-49
2022/06/07 12:12:36;;;;;;;8.70;7.68;;;16.10;99.90;;;;;;5094333;28;20020;-48
2022/06/07 12:15:39;;;;;;;10.90;7.28;;;16.10;99.90;;;;;;5099375;28;20066;-46
2022/06/07 12:18:16;;;;;;;8.73;7.57;;;16.30;99.90;;;;;;5090882;28;20035;-50
2022/06/07 12:20:41;;;;;;;7.60;6.78;;;16.40;99.90;;;;;;5097725;28;20112;-49
2022/06/07 12:23:26;;;;;;;9.40;7.22;;;16.40;99.90;;;;;;5100087;28;20107;-52
2022/06/07 12:26:15;;;;;;;10.30;7.65;;;16.40;99.90;;;;;;5099300;28;20047;-50
2022/06/07 12:28:48;;;;;;;10.98;7.63;;;16.40;99.90;;;;;;5085762;28;20044;-50
2022/06/07 12:31:24;;;;;;;7.93;7.07;;;16.30;99.90;;;;;;5101430;28;20023;-52
2022/06/07 12:33:55;;;;;;;8.23;7.20;;;16.30;99.90;;;;;;5100860;28;20028;-51
2022/06/07 12:36:25;;;;;;;10.80;8.15;;;16.30;99.90;;;;;;5100979;28;20550;-52
2022/06/07 12:38:51;;;;;;;8.48;7.55;;;16.20;99.90;;;;;;5086792;28;20027;-49
2022/06/07 12:41:24;;;;;;;9.32;8.20;;;16.10;99.90;;;;;;5103369;28;20023;-51
2022/06/07 12:43:54;;;;;;;9.98;7.13;;;16.10;99.90;;;;;;5104965;28;20508;-49
2022/06/07 12:46:40;;;;;;;8.20;7.43;;;16.10;99.90;;;;;;5104521;28;20483;-49
2022/06/07 12:49:19;;;;;;;9.97;7.73;;;16.00;99.90;;;;;;5102822;28;20088;-49
2022/06/07 12:51:54;;;;;;;8.25;7.07;;;16.10;99.90;;;;;;5108694;28;20008;-49
2022/06/07 12:54:22;;;;;;;9.15;8.05;;;16.10;99.90;;;;;;5086364;28;20020;-49
2022/06/07 12:56:50;;;;;;;7.95;6.57;;;16.20;99.90;;;;;;5103575;28;20020;-52
2022/06/07 12:59:23;;;;;;;7.75;6.85;;;16.30;99.90;;;;;;5089401;28;20047;-51
2022/06/07 13:01:50;;;;;;;7.93;6.88;;;16.30;99.90;;;;;;5104060;28;20024;-49
2022/06/07 13:04:29;;;;;;;11.48;8.10;;;16.40;99.90;;;;;;5105361;28;20028;-49
2022/06/07 13:07:07;;;;;;;8.25;6.25;;;16.40;99.90;;;;;;5100326;28;20025;-51
2022/06/07 13:09:33;;;;;;;7.32;6.18;;;16.40;99.90;;;;;;5104056;28;20544;-53
2022/06/07 13:11:59;;;;;;;8.95;6.95;;;16.40;99.90;;;;;;5102065;28;20028;-51
2022/06/07 13:14:25;;;;;;;8.70;7.45;;;16.40;99.90;;;;;;5104050;28;20030;-51
2022/06/07 13:16:52;;;;;;;8.45;7.65;;;16.40;99.90;;;;;;5082570;28;20019;-53
2022/06/07 13:19:27;;;;;;;7.55;6.75;;;16.40;99.90;;;;;;5092949;28;20032;-52
2022/06/07 13:21:56;;;;;;;6.60;6.00;;;16.50;99.90;;;;;;5094556;28;20035;-49
2022/06/07 13:24:25;;;;;;;9.65;6.95;;;16.50;99.90;;;;;;5104181;28;20607;-53
2022/06/07 13:27:03;;;;;;;8.07;7.13;;;16.50;99.90;;;;;;5108681;28;20020;-49
2022/06/07 13:29:36;;;;;;;9.68;6.65;;;16.70;99.90;;;;;;5100902;28;20103;-51
2022/06/07 13:32:20;;;;;;;10.00;6.80;;;16.70;99.90;;;;;;5107901;28;20051;-49